Time;durP1;ratioP1;P1;durP2;ratioP2;P2;SDS_P1;SDS_P2;PMS_P1;PMS_P2;Temp;Humidity;BMP_temperature;BMP_pressure;BME280_temperature;BME280_humidity;BME280_pressure;Samples;Min_cycle;Max_cycle;Signal;HPM_P1;HPM_P2
2023/07/31 00:01:17;;;;;;;0.10;0.10;;;;;;;23.35;74.02;100656.63;5017525;28;20074;-86
2023/07/31 00:03:42;;;;;;;0.10;0.10;;;;;;;23.19;73.37;100652.09;5033683;28;20453;-86
2023/07/31 00:06:08;;;;;;;0.10;0.10;;;;;;;23.34;74.29;100654.97;5017389;28;20028;-86
2023/07/31 00:08:33;;;;;;;0.10;0.10;;;;;;;23.21;73.72;100650.13;5000720;28;20025;-85
2023/07/31 00:10:59;;;;;;;0.10;0.10;;;;;;;23.29;74.04;100659.88;5033592;28;20025;-85
2023/07/31 00:13:25;;;;;;;0.10;0.10;;;;;;;23.10;74.64;100645.91;5000574;28;20029;-86
2023/07/31 00:15:50;;;;;;;0.20;0.20;;;;;;;23.12;74.04;100646.63;5017389;28;20037;-85
2023/07/31 00:18:15;;;;;;;0.10;0.10;;;;;;;23.14;74.42;100652.56;5000871;28;20033;-85
2023/07/31 00:20:41;;;;;;;0.20;0.20;;;;;;;23.27;72.99;100654.78;5017163;28;20069;-87
2023/07/31 00:23:06;;;;;;;0.10;0.10;;;;;;;23.32;73.92;100657.78;5000473;28;20040;-86
2023/07/31 00:25:32;;;;;;;0.10;0.10;;;;;;;23.19;73.38;100647.63;5013294;28;20048;-87
2023/07/31 00:27:57;;;;;;;0.10;0.10;;;;;;;23.15;73.79;100651.56;5013560;28;20025;-86
2023/07/31 00:30:25;;;;;;;0.10;0.10;;;;;;;23.32;73.68;100657.78;5014014;28;20041;-87
2023/07/31 00:32:50;;;;;;;0.20;0.20;;;;;;;23.22;74.57;100659.72;5030384;28;20029;-86
2023/07/31 00:35:16;;;;;;;0.10;0.10;;;;;;;23.01;74.36;100644.25;5013417;28;20033;-85
2023/07/31 00:37:41;;;;;;;0.10;0.10;;;;;;;23.07;73.95;100645.41;5013105;28;20033;-85
2023/07/31 00:40:08;;;;;;;0.10;0.10;;;;;;;22.99;74.38;100642.72;4997248;28;20502;-85
2023/07/31 00:42:33;;;;;;;0.10;0.10;;;;;;;23.01;73.70;100660.06;5031187;28;20468;-86
2023/07/31 00:44:59;;;;;;;0.10;0.10;;;;;;;22.87;74.49;100644.78;4996748;28;20037;-87
2023/07/31 00:47:24;;;;;;;0.10;0.10;;;;;;;22.82;74.26;100654.97;5013561;28;20033;-86
2023/07/31 00:49:50;;;;;;;0.10;0.10;;;;;;;22.76;74.04;100637.91;4996971;28;20029;-85
2023/07/31 00:52:15;;;;;;;0.10;0.10;;;;;;;22.82;74.43;100649.69;4996684;28;20040;-86
2023/07/31 00:54:40;;;;;;;0.10;0.10;;;;;;;22.83;74.48;100651.34;4996815;28;20036;-86
2023/07/31 00:57:08;;;;;;;0.10;0.10;;;;;;;22.69;74.11;100652.69;5013445;28;20025;-85
2023/07/31 00:59:33;;;;;;;0.10;0.10;;;;;;;22.77;74.23;100651.94;5013788;28;20502;-85
2023/07/31 01:01:59;;;;;;;0.10;0.10;;;;;;;22.57;74.66;100646.84;5029707;28;20029;-85
2023/07/31 01:04:24;;;;;;;0.10;0.10;;;;;;;22.52;74.73;100617.47;5029953;28;20037;-86
2023/07/31 01:07:01;;;;;;;0.10;0.10;;;;;;;22.77;74.23;100647.47;5012648;28;20069;-86
2023/07/31 01:09:42;;;;;;;0.10;0.10;;;;;;;22.71;75.52;100639.34;5029634;28;20021;-85
2023/07/31 01:12:07;;;;;;;0.10;0.10;;;;;;;22.64;74.30;100635.69;5030856;28;20112;-85
2023/07/31 01:14:33;;;;;;;0.10;0.10;;;;;;;22.72;74.90;100625.22;4996600;28;20510;-86
2023/07/31 01:16:58;;;;;;;0.10;0.10;;;;;;;22.66;74.16;100620.53;5012917;28;20079;-86
2023/07/31 01:19:26;;;;;;;0.10;0.10;;;;;;;22.74;74.26;100639.06;5029233;28;20037;-86
2023/07/31 01:22:23;;;;;;;0.10;0.10;;;;;;;22.73;74.84;100645.31;5013431;28;20079;-85
2023/07/31 01:25:10;;;;;;;0.10;0.10;;;;;;;22.79;74.58;100639.41;5041235;28;20053;-86
2023/07/31 01:27:36;;;;;;;0.10;0.10;;;;;;;22.72;74.15;100636.59;5032559;28;20090;-85
2023/07/31 01:30:14;;;;;;;0.10;0.10;;;;;;;22.64;74.76;100636.50;5000085;28;20029;-86
2023/07/31 01:32:40;;;;;;;0.13;0.13;;;;;;;22.75;74.25;100635.44;5017715;28;20505;-86
2023/07/31 01:35:06;;;;;;;0.10;0.10;;;;;;;22.82;72.44;100633.84;5015780;28;20123;-86
2023/07/31 01:37:31;;;;;;;0.10;0.10;;;;;;;22.89;73.37;100629.63;5016093;28;20411;-86
2023/07/31 01:39:57;;;;;;;0.10;0.10;;;;;;;22.88;72.29;100627.97;4999823;28;20033;-86
2023/07/31 01:42:22;;;;;;;0.10;0.10;;;;;;;22.86;72.25;100629.94;5015840;28;20029;-86
2023/07/31 01:44:48;;;;;;;0.10;0.10;;;;;;;22.78;72.49;100611.38;5015951;28;20434;-87
2023/07/31 01:47:13;;;;;;;0.20;0.20;;;;;;;22.78;73.69;100627.22;5032483;28;20028;-85
2023/07/31 01:49:39;;;;;;;0.10;0.10;;;;;;;22.67;72.23;100611.66;4999366;28;20032;-85
2023/07/31 01:52:05;;;;;;;0.10;0.10;;;;;;;22.59;72.40;100615.03;5016006;28;20028;-85
2023/07/31 01:54:30;;;;;;;0.10;0.10;;;;;;;22.59;73.81;100622.94;5032495;28;20033;-85
2023/07/31 01:56:55;;;;;;;0.10;0.10;;;;;;;22.65;72.56;100637.34;5001996;28;20041;-86
2023/07/31 01:59:21;;;;;;;0.10;0.10;;;;;;;22.69;72.65;100638.69;5019764;28;20491;-86
2023/07/31 02:01:46;;;;;;;0.10;0.10;;;;;;;22.64;72.26;100636.50;5019728;28;20414;-85
2023/07/31 02:04:12;;;;;;;0.10;0.10;;;;;;;22.65;72.17;100637.34;5019378;28;20087;-85
2023/07/31 02:06:38;;;;;;;0.10;0.10;;;;;;;22.74;71.96;100653.06;5054260;28;20039;-86
2023/07/31 02:09:03;;;;;;;0.10;0.10;;;;;;;22.84;71.37;100653.03;5019781;28;20513;-86
2023/07/31 02:11:28;;;;;;;0.20;0.20;;;;;;;22.84;71.41;100658.28;5003304;28;20036;-87
2023/07/31 02:13:54;;;;;;;0.10;0.10;;;;;;;22.78;70.59;100648.31;5019023;28;20513;-87
2023/07/31 02:16:19;;;;;;;0.10;0.10;;;;;;;22.98;71.09;100670.09;5019658;28;20020;-86
2023/07/31 02:18:45;;;;;;;0.10;0.10;;;;;;;22.92;71.04;100658.34;5018982;28;20029;-86
2023/07/31 02:21:10;;;;;;;0.10;0.10;;;;;;;23.04;69.70;100675.59;5019193;28;20029;-87
2023/07/31 02:23:36;;;;;;;0.10;0.10;;;;;;;23.10;69.59;100679.41;5019260;28;20503;-86
2023/07/31 02:26:01;;;;;;;0.10;0.10;;;;;;;22.91;70.20;100659.34;5002989;28;20445;-86
2023/07/31 02:28:26;;;;;;;0.10;0.10;;;;;;;22.99;69.77;100680.47;5019174;28;20029;-86
2023/07/31 02:30:52;;;;;;;0.10;0.10;;;;;;;22.91;69.09;100683.09;5019030;28;20025;-88
2023/07/31 02:33:17;;;;;;;0.10;0.10;;;;;;;22.90;69.64;100662.94;5018891;28;20029;-86
2023/07/31 02:35:43;;;;;;;0.10;0.10;;;;;;;22.96;69.05;100672.06;5019249;28;20092;-86
2023/07/31 02:38:08;;;;;;;0.10;0.10;;;;;;;22.98;68.30;100692.03;5019072;28;20033;-87
2023/07/31 02:40:34;;;;;;;0.10;0.10;;;;;;;22.99;67.70;100693.69;5019161;28;20501;-86
2023/07/31 02:42:59;;;;;;;0.10;0.10;;;;;;;22.90;68.48;100678.75;5018945;28;20395;-86
2023/07/31 02:45:25;;;;;;;0.10;0.10;;;;;;;22.98;68.86;100692.03;5018909;28;20044;-85
2023/07/31 02:47:50;;;;;;;0.10;0.10;;;;;;;22.81;68.51;100684.91;5035151;28;20033;-86
2023/07/31 02:50:15;;;;;;;0.10;0.10;;;;;;;22.76;68.25;100681.94;5018622;28;20041;-86
2023/07/31 02:52:41;;;;;;;0.10;0.10;;;;;;;22.68;67.95;100673.94;5018793;28;20029;-85
2023/07/31 02:55:07;;;;;;;0.10;0.10;;;;;;;22.56;69.25;100673.34;5018536;28;20415;-85
2023/07/31 02:57:32;;;;;;;0.17;0.17;;;;;;;22.68;69.04;100695.03;5018890;28;20057;-86
2023/07/31 02:59:58;;;;;;;0.10;0.10;;;;;;;22.68;68.83;100700.31;5018849;28;20028;-86
2023/07/31 03:02:23;;;;;;;0.10;0.10;;;;;;;22.61;68.14;100684.25;5018135;28;20029;-89
2023/07/31 03:04:48;;;;;;;0.10;0.10;;;;;;;22.63;68.19;100694.69;5002433;28;20036;-89
2023/07/31 03:07:14;;;;;;;0.10;0.10;;;;;;;22.65;68.65;100711.19;5002127;28;20487;-87
2023/07/31 03:09:39;;;;;;;0.10;0.10;;;;;;;22.53;67.82;100705.31;5018618;28;20413;-88
2023/07/31 03:12:05;;;;;;;0.10;0.10;;;;;;;22.37;69.29;100694.59;5035188;28;20039;-89
2023/07/31 03:14:31;;;;;;;0.10;0.10;;;;;;;22.48;67.19;100705.75;5034730;28;20079;-90
2023/07/31 03:16:56;;;;;;;0.20;0.20;;;;;;;22.57;67.38;100710.09;5001921;28;20040;-86
2023/07/31 03:19:22;;;;;;;0.10;0.10;;;;;;;22.56;67.61;100707.63;5018462;28;20380;-88
2023/07/31 03:21:47;;;;;;;0.10;0.10;;;;;;;22.36;67.04;100700.84;5018330;28;20079;-86
2023/07/31 03:24:13;;;;;;;0.10;0.10;;;;;;;22.49;67.18;100711.84;5018122;28;20060;-90
2023/07/31 03:26:41;;;;;;;0.10;0.10;;;;;;;22.44;65.43;100696.47;5018054;28;20025;-88
2023/07/31 03:29:06;;;;;;;0.10;0.10;;;;;;;22.48;65.87;100707.53;5019454;28;20567;-88
2023/07/31 03:31:32;;;;;;;0.10;0.10;;;;;;;22.59;66.19;100708.16;5017825;28;20033;-89
2023/07/31 03:36:41;;;;;;;0.20;0.20;;;;;;;22.55;65.10;100712.06;5023009;28;20036;-87
2023/07/31 03:39:07;;;;;;;0.10;0.10;;;;;;;22.64;65.12;100714.78;5018063;28;20029;-88
2023/07/31 03:41:32;;;;;;;0.17;0.17;;;;;;;22.67;65.23;100707.41;5001786;28;20095;-90
2023/07/31 03:43:57;;;;;;;0.10;0.10;;;;;;;22.73;64.71;100713.88;4993452;28;20049;-89
2023/07/31 03:46:24;;;;;;;0.10;0.10;;;;;;;22.72;64.24;100717.50;5018542;28;20490;-91
2023/07/31 03:48:49;;;;;;;0.10;0.10;;;;;;;22.75;64.03;100718.03;5018469;28;20482;-89
2023/07/31 03:51:15;;;;;;;0.10;0.10;;;;;;;22.70;64.59;100719.44;5002021;28;20036;-90
2023/07/31 03:53:40;;;;;;;0.20;0.20;;;;;;;22.69;63.96;100723.88;5017818;28;20098;-90
2023/07/31 03:56:06;;;;;;;0.10;0.10;;;;;;;22.67;64.31;100720.59;5001506;28;20028;-86
2023/07/31 03:58:31;;;;;;;0.10;0.10;;;;;;;22.80;62.58;100725.47;5017145;28;20415;-85
2023/07/31 04:00:57;;;;;;;0.20;0.20;;;;;;;22.70;62.83;100720.28;5001263;28;20028;-85
2023/07/31 04:03:22;;;;;;;0.10;0.10;;;;;;;22.68;63.68;100730.16;5017464;28;20025;-88
2023/07/31 04:05:47;;;;;;;0.10;0.10;;;;;;;22.78;63.44;100724.78;5017494;28;20025;-90
2023/07/31 04:08:13;;;;;;;0.10;0.10;;;;;;;22.75;63.32;100725.94;4999796;28;20036;-87
2023/07/31 04:10:38;;;;;;;0.10;0.10;;;;;;;22.60;64.54;100725.63;5000519;28;20419;-89
2023/07/31 04:13:04;;;;;;;0.10;0.10;;;;;;;22.69;63.87;100733.59;5016382;28;20033;-88
2023/07/31 04:15:31;;;;;;;0.10;0.10;;;;;;;22.65;64.24;100734.91;5033330;28;20430;-89
2023/07/31 04:17:56;;;;;;;0.15;0.15;;;;;;;22.75;63.83;100743.56;5017420;28;20036;-89
2023/07/31 04:20:22;;;;;;;0.10;0.10;;;;;;;22.79;63.98;100744.91;5016561;28;20411;-90
2023/07/31 04:22:47;;;;;;;0.10;0.10;;;;;;;22.58;64.17;100740.75;5042963;28;20037;-89
2023/07/31 04:29:01;;;;;;;0.10;0.10;;;;;;;22.52;65.01;100737.91;5063751;28;20079;-91
2023/07/31 04:31:27;;;;;;;0.10;0.10;;;;;;;22.43;64.48;100708.00;5015923;28;20837;-90
2023/07/31 04:33:52;;;;;;;0.10;0.10;;;;;;;22.65;64.43;100737.53;5031973;28;20033;-92
2023/07/31 04:36:18;;;;;;;0.10;0.10;;;;;;;22.69;64.58;100738.88;5000152;28;20479;-92
2023/07/31 04:38:43;;;;;;;0.13;0.13;;;;;;;22.67;64.42;100738.22;5027173;28;20415;-92
2023/07/31 04:41:09;;;;;;;0.10;0.10;;;;;;;22.71;63.93;100731.66;5015021;28;20032;-88
2023/07/31 04:43:34;;;;;;;0.10;0.10;;;;;;;22.77;64.10;100752.16;4985430;28;20482;-89
2023/07/31 04:46:05;;;;;;;0.20;0.20;;;;;;;22.69;64.39;100752.06;5020862;28;20033;-94
2023/07/31 04:48:32;;;;;;;0.10;0.10;;;;;;;22.71;64.82;100747.47;5029318;28;20065;-93
2023/07/31 04:50:57;;;;;;;0.10;0.10;;;;;;;22.68;64.42;100747.78;5004678;28;20118;-94
2023/07/31 04:53:23;;;;;;;0.10;0.10;;;;;;;22.71;64.00;100753.56;5002395;28;20103;-92
2023/07/31 04:55:48;;;;;;;0.10;0.10;;;;;;;22.64;65.27;100756.97;5024437;28;20028;-91
2023/07/31 04:58:14;;;;;;;0.10;0.10;;;;;;;22.39;64.51;100713.72;5013446;28;20039;-89
2023/07/31 05:00:39;;;;;;;0.10;0.10;;;;;;;22.70;65.16;100751.09;5051781;28;20490;-91
2023/07/31 05:03:05;;;;;;;0.10;0.10;;;;;;;22.72;64.94;100751.78;5029701;28;20032;-91
2023/07/31 05:05:30;;;;;;;0.10;0.10;;;;;;;22.68;65.21;100753.06;5037016;28;20032;-91
2023/07/31 05:07:56;;;;;;;0.20;0.20;;;;;;;22.80;64.83;100763.22;5017827;28;20036;-88
2023/07/31 05:10:22;;;;;;;0.10;0.10;;;;;;;22.94;64.63;100769.81;5010215;28;20035;-92
2023/07/31 05:12:48;;;;;;;0.10;0.10;;;;;;;23.11;64.64;100766.34;5039662;28;20432;-88
2023/07/31 05:15:13;;;;;;;0.10;0.10;;;;;;;23.16;63.73;100779.91;5052127;28;20598;-88
2023/07/31 05:17:39;;;;;;;0.10;0.10;;;;;;;23.25;64.00;100782.59;5021616;28;20451;-87
2023/07/31 05:20:05;;;;;;;0.10;0.10;;;;;;;23.34;64.50;100771.97;5032122;28;20422;-91
2023/07/31 05:22:30;;;;;;;0.10;0.10;;;;;;;23.36;63.56;100772.63;5016925;28;20556;-90
2023/07/31 05:24:56;;;;;;;0.10;0.10;;;;;;;23.47;63.23;100766.25;5017202;28;20045;-91
2023/07/31 05:27:22;;;;;;;0.10;0.10;;;;;;;23.56;62.49;100770.63;5015926;28;20040;-87
2023/07/31 05:29:47;;;;;;;0.10;0.10;;;;;;;23.56;61.91;100760.06;5049742;28;20522;-85
2023/07/31 05:32:13;;;;;;;0.10;0.10;;;;;;;23.81;61.52;100768.16;5019878;28;20079;-91
2023/07/31 05:34:38;;;;;;;0.10;0.10;;;;;;;23.88;61.74;100758.59;5035835;28;20349;-86
2023/07/31 05:37:04;;;;;;;0.10;0.10;;;;;;;23.84;60.70;100747.53;5035566;28;20067;-86
2023/07/31 05:39:30;;;;;;;0.10;0.10;;;;;;;24.03;60.55;100767.59;5036451;28;20025;-87
2023/07/31 05:41:56;;;;;;;0.10;0.10;;;;;;;24.08;60.96;100753.91;5036224;28;20547;-90
2023/07/31 05:44:23;;;;;;;0.10;0.10;;;;;;;24.25;59.66;100764.38;5022478;28;20127;-93
2023/07/31 05:46:48;;;;;;;0.10;0.10;;;;;;;24.30;60.66;100772.66;5039808;28;20040;-92
2023/07/31 05:49:14;;;;;;;0.10;0.10;;;;;;;24.47;59.33;100785.94;5030073;28;20033;-92
2023/07/31 05:51:40;;;;;;;0.20;0.20;;;;;;;24.46;59.20;100760.50;5025767;28;20592;-94
2023/07/31 05:54:05;;;;;;;0.10;0.10;;;;;;;24.61;58.41;100772.13;5031191;28;20037;-90
2023/07/31 05:56:33;;;;;;;0.10;0.10;;;;;;;24.72;58.44;100777.09;5010167;28;20486;-90
2023/07/31 05:58:59;;;;;;;0.10;0.10;;;;;;;24.74;58.67;100779.56;5041789;28;20079;-92
2023/07/31 06:01:25;;;;;;;0.10;0.10;;;;;;;24.76;58.56;100759.88;5209468;22;20065;-93
2023/07/31 06:03:52;;;;;;;0.10;0.10;;;;;;;24.82;58.24;100758.41;5038860;28;20049;-88
2023/07/31 06:06:17;;;;;;;0.10;0.10;;;;;;;25.08;58.39;100790.06;5066560;28;20422;-92
2023/07/31 06:08:44;;;;;;;0.10;0.10;;;;;;;25.08;56.91;100779.47;5056851;28;20029;-91
2023/07/31 06:11:10;;;;;;;0.10;0.10;;;;;;;25.01;57.48;100755.44;5057802;28;20104;-91
2023/07/31 06:13:35;;;;;;;0.10;0.10;;;;;;;25.08;57.77;100767.06;5052712;28;20037;-89
2023/07/31 06:16:05;;;;;;;0.10;0.10;;;;;;;25.07;56.24;100783.09;5025980;28;20556;-93
2023/07/31 06:18:37;;;;;;;0.10;0.10;;;;;;;24.97;57.18;100782.38;5057723;28;20021;-93
2023/07/31 06:21:04;;;;;;;0.10;0.10;;;;;;;25.22;55.85;100781.44;5021592;28;20060;-94
2023/07/31 06:23:32;;;;;;;0.20;0.20;;;;;;;25.28;56.07;100786.09;5019768;28;20037;-94
2023/07/31 06:25:58;;;;;;;0.10;0.10;;;;;;;25.24;56.02;100763.56;5038992;28;20060;-88
2023/07/31 06:28:30;;;;;;;0.10;0.10;;;;;;;25.37;57.14;100777.16;5057825;28;20029;-90
2023/07/31 06:30:56;;;;;;;0.20;0.20;;;;;;;25.41;56.34;100780.28;5019319;28;20026;-89
2023/07/31 06:33:22;;;;;;;0.10;0.10;;;;;;;25.33;57.13;100782.94;5036872;28;20452;-91
2023/07/31 06:35:51;;;;;;;0.17;0.17;;;;;;;25.46;55.76;100769.97;5078682;22;20076;-92
2023/07/31 06:38:32;;;;;;;0.10;0.10;;;;;;;25.61;55.54;100786.84;5028934;28;20060;-92
2023/07/31 06:40:59;;;;;;;0.10;0.10;;;;;;;25.45;55.76;100781.56;5024665;28;20021;-92
2023/07/31 06:43:25;;;;;;;0.10;0.10;;;;;;;25.36;55.93;100766.69;5061869;28;20806;-90
2023/07/31 06:46:07;;;;;;;0.10;0.10;;;;;;;25.38;55.82;100765.56;5043080;28;20075;-93
2023/07/31 06:48:37;;;;;;;0.10;0.10;;;;;;;25.57;55.44;100782.91;5015353;28;20059;-93
2023/07/31 06:51:03;;;;;;;0.20;0.20;;;;;;;25.58;55.48;100773.97;5048285;28;20083;-93
2023/07/31 06:53:29;;;;;;;0.10;0.10;;;;;;;25.55;55.11;100770.81;5026585;28;20033;-89
2023/07/31 06:56:00;;;;;;;0.10;0.10;;;;;;;25.68;54.65;100779.06;5029851;28;20470;-92
2023/07/31 06:58:26;;;;;;;0.20;0.20;;;;;;;25.68;54.92;100765.81;5011023;28;20032;-92
2023/07/31 07:01:00;;;;;;;0.20;0.20;;;;;;;25.72;54.23;100785.69;4995819;28;20430;-92
2023/07/31 07:03:33;;;;;;;0.10;0.10;;;;;;;25.63;54.57;100784.03;5009911;28;20428;-91
2023/07/31 07:05:59;;;;;;;0.20;0.20;;;;;;;25.59;54.24;100750.94;5023538;28;20414;-91
2023/07/31 07:08:24;;;;;;;0.20;0.20;;;;;;;25.86;55.04;100774.41;5033956;28;20496;-92
2023/07/31 07:10:53;;;;;;;0.10;0.10;;;;;;;26.06;54.20;100774.84;5023203;28;20033;-93
2023/07/31 07:13:23;;;;;;;0.20;0.20;;;;;;;26.13;53.22;100774.97;5043748;28;20041;-90
2023/07/31 07:15:49;;;;;;;0.20;0.20;;;;;;;26.08;52.89;100782.63;5000802;28;20412;-91
2023/07/31 07:18:14;;;;;;;0.10;0.10;;;;;;;26.15;52.04;100763.19;5005120;28;20399;-88
2023/07/31 07:20:40;;;;;;;0.20;0.20;;;;;;;26.27;53.63;100782.19;4998440;28;20462;-91
2023/07/31 07:23:05;;;;;;;0.20;0.20;;;;;;;26.36;51.91;100786.47;5015898;28;20040;-90
2023/07/31 07:25:31;;;;;;;0.10;0.10;;;;;;;26.30;51.11;100792.44;5011257;28;20100;-91
2023/07/31 07:27:56;;;;;;;0.20;0.20;;;;;;;26.28;51.23;100789.16;5005924;28;20124;-93
2023/07/31 07:30:24;;;;;;;0.20;0.20;;;;;;;26.38;50.38;100803.06;5016213;28;20025;-87
2023/07/31 07:32:50;;;;;;;0.10;0.10;;;;;;;26.55;50.77;100790.53;5028966;28;20021;-90
2023/07/31 07:35:16;;;;;;;0.20;0.20;;;;;;;26.37;49.52;100797.91;5055753;28;20079;-88
2023/07/31 07:37:43;;;;;;;0.20;0.20;;;;;;;26.24;50.32;100772.75;5017214;28;20580;-93
2023/07/31 07:40:10;;;;;;;0.20;0.20;;;;;;;26.38;50.78;100773.88;5034099;28;20064;-92
2023/07/31 07:42:36;;;;;;;0.20;0.20;;;;;;;26.50;50.03;100783.09;5043437;28;20103;-91
2023/07/31 07:45:02;;;;;;;0.10;0.10;;;;;;;26.65;50.46;100779.69;5026273;28;20086;-94
2023/07/31 07:47:31;;;;;;;0.20;0.20;;;;;;;26.70;49.47;100778.16;5020610;28;20032;-94
2023/07/31 07:49:57;;;;;;;0.20;0.20;;;;;;;26.75;49.54;100780.31;5014391;28;20025;-91
2023/07/31 07:52:22;;;;;;;0.20;0.20;;;;;;;26.89;50.17;100798.09;5004711;28;20040;-88
2023/07/31 07:54:49;;;;;;;0.10;0.10;;;;;;;26.93;49.51;100766.72;5033100;28;20073;-88
2023/07/31 07:57:15;;;;;;;0.20;0.20;;;;;;;27.08;48.66;100764.97;5034388;28;20025;-89
2023/07/31 07:59:41;;;;;;;0.20;0.20;;;;;;;27.21;47.66;100781.09;5001902;28;20048;-92
2023/07/31 08:02:07;;;;;;;0.10;0.10;;;;;;;27.20;48.93;100783.94;5008680;28;20025;-91
2023/07/31 08:04:42;;;;;;;0.10;0.10;;;;;;;27.21;47.28;100783.75;5060513;28;20039;-92
2023/07/31 08:07:08;;;;;;;0.20;0.20;;;;;;;27.29;48.43;100789.00;5054701;28;20032;-87
2023/07/31 08:09:34;;;;;;;0.20;0.20;;;;;;;27.36;47.81;100805.88;5020739;28;20101;-89
2023/07/31 08:12:02;;;;;;;0.20;0.20;;;;;;;27.43;48.01;100803.31;5038109;28;20060;-90
2023/07/31 08:14:28;;;;;;;0.10;0.10;;;;;;;27.61;48.21;100792.34;5044111;28;20029;-87
2023/07/31 08:16:54;;;;;;;0.10;0.10;;;;;;;27.46;47.11;100787.03;5020878;28;20046;-91
2023/07/31 08:19:19;;;;;;;0.10;0.10;;;;;;;27.60;46.03;100807.47;5021549;28;20063;-91
2023/07/31 08:21:46;;;;;;;0.20;0.20;;;;;;;27.62;46.88;100805.44;5018329;28;20061;-90
2023/07/31 08:24:12;;;;;;;0.20;0.20;;;;;;;27.61;46.90;100797.66;5034759;28;20087;-91
2023/07/31 08:26:38;;;;;;;0.20;0.20;;;;;;;27.68;46.93;100799.44;5058881;28;20017;-92
2023/07/31 08:29:13;;;;;;;0.20;0.20;;;;;;;27.66;47.07;100780.22;5050725;28;20122;-94
2023/07/31 08:31:42;;;;;;;0.10;0.10;;;;;;;27.60;45.95;100769.44;5063778;23;20053;-92
2023/07/31 08:34:11;;;;;;;0.20;0.20;;;;;;;27.94;46.72;100787.53;5039881;28;20142;-90
2023/07/31 08:36:38;;;;;;;0.10;0.10;;;;;;;28.00;46.03;100773.50;5036120;28;20029;-89
2023/07/31 08:39:08;;;;;;;0.20;0.20;;;;;;;28.01;43.70;100772.47;5041010;28;20021;-94
2023/07/31 08:41:39;;;;;;;0.20;0.20;;;;;;;28.25;44.73;100779.34;5036535;28;20021;-91
2023/07/31 08:44:05;;;;;;;0.20;0.20;;;;;;;28.21;44.46;100781.53;5022242;28;20025;-91
2023/07/31 08:46:31;;;;;;;0.20;0.20;;;;;;;28.28;43.66;100771.84;5053277;28;20132;-89
2023/07/31 08:49:01;;;;;;;0.20;0.20;;;;;;;28.36;43.68;100775.41;5045204;28;20032;-92
2023/07/31 08:51:27;;;;;;;0.20;0.20;;;;;;;28.19;43.06;100764.13;5040303;28;20025;-88
2023/07/31 08:53:57;;;;;;;0.20;0.20;;;;;;;28.44;43.31;100777.97;5043524;28;20031;-93
2023/07/31 08:56:32;;;;;;;0.17;0.17;;;;;;;28.50;42.53;100785.16;5045947;28;20036;-93
2023/07/31 08:58:59;;;;;;;0.20;0.20;;;;;;;28.55;42.59;100780.94;5035437;28;20162;-88
2023/07/31 09:01:24;;;;;;;0.20;0.20;;;;;;;28.57;43.32;100775.44;5031803;28;20454;-93
2023/07/31 09:03:50;;;;;;;0.20;0.20;;;;;;;28.70;42.68;100799.50;5015225;28;20021;-86
2023/07/31 09:06:16;;;;;;;0.20;0.20;;;;;;;28.40;42.30;100761.53;5031729;28;20040;-87
2023/07/31 09:08:43;;;;;;;0.20;0.20;;;;;;;28.57;41.73;100778.09;5060115;28;20016;-90
2023/07/31 09:11:10;;;;;;;0.20;0.20;;;;;;;28.73;42.67;100788.50;5074793;28;20038;-91
2023/07/31 09:13:35;;;;;;;0.20;0.20;;;;;;;28.77;42.54;100779.09;5070636;28;20062;-91
2023/07/31 09:16:01;;;;;;;0.20;0.20;;;;;;;28.75;42.35;100781.16;5071077;22;20084;-91
2023/07/31 09:18:26;;;;;;;0.17;0.17;;;;;;;28.70;43.17;100766.75;5019231;28;20055;-90
2023/07/31 09:21:05;;;;;;;0.20;0.20;;;;;;;28.82;43.53;100786.53;5018284;28;20037;-91
2023/07/31 09:23:47;;;;;;;0.20;0.20;;;;;;;29.01;43.21;100787.78;5015344;28;20045;-88
2023/07/31 09:26:48;;;;;;;0.20;0.20;;;;;;;29.19;41.86;100787.28;5031759;28;20032;-92
2023/07/31 09:29:19;;;;;;;0.20;0.20;;;;;;;29.11;43.00;100780.28;4956373;28;20034;-90
2023/07/31 09:31:45;;;;;;;0.20;0.20;;;;;;;29.06;41.08;100780.84;5039404;28;20041;-92
2023/07/31 09:34:13;;;;;;;0.20;0.20;;;;;;;29.08;41.42;100775.31;5037402;28;20036;-91
2023/07/31 09:36:46;;;;;;;0.20;0.20;;;;;;;29.05;41.70;100778.38;5035310;28;20047;-90
2023/07/31 09:39:12;;;;;;;0.20;0.20;;;;;;;29.07;40.96;100779.81;5053606;28;20079;-91
2023/07/31 09:41:38;;;;;;;0.20;0.20;;;;;;;29.16;41.24;100772.53;5015840;28;20170;-92
2023/07/31 09:44:04;;;;;;;0.15;0.15;;;;;;;29.22;40.39;100769.09;5172858;23;20058;-86
2023/07/31 09:46:30;;;;;;;0.20;0.20;;;;;;;29.21;41.47;100777.28;5009258;28;20149;-93
2023/07/31 09:49:05;;;;;;;0.20;0.20;;;;;;;29.38;40.35;100776.78;5019379;28;20025;-91
2023/07/31 09:51:31;;;;;;;0.20;0.20;;;;;;;29.37;40.52;100769.81;5001432;28;20030;-92
2023/07/31 09:53:56;;;;;;;0.20;0.20;;;;;;;29.30;40.25;100762.78;4995295;28;20116;-90
2023/07/31 09:56:22;;;;;;;0.20;0.20;;;;;;;29.57;40.66;100764.63;4992963;28;20033;-91
2023/07/31 09:58:47;;;;;;;0.20;0.20;;;;;;;29.81;40.97;100734.03;4995210;28;20456;-87
2023/07/31 10:01:13;;;;;;;0.20;0.20;;;;;;;29.88;40.47;100761.53;5008595;28;20506;-90
2023/07/31 10:03:54;;;;;;;0.20;0.20;;;;;;;29.92;40.18;100760.13;5009256;28;20454;-94
2023/07/31 10:06:23;;;;;;;0.20;0.20;;;;;;;30.04;38.98;100759.56;5010885;28;20026;-91
2023/07/31 10:08:49;;;;;;;0.20;0.20;;;;;;;29.94;40.43;100747.41;4994288;28;20093;-88
2023/07/31 10:11:14;;;;;;;0.20;0.20;;;;;;;29.82;40.35;100737.50;5008125;28;20037;-86
2023/07/31 10:13:39;;;;;;;0.20;0.20;;;;;;;30.02;41.05;100761.59;5016718;28;20491;-88
2023/07/31 10:16:07;;;;;;;0.20;0.20;;;;;;;30.17;40.77;100751.63;5032401;28;20056;-93
2023/07/31 10:18:33;;;;;;;0.20;0.20;;;;;;;29.98;38.88;100745.97;5040680;28;20088;-92
2023/07/31 10:20:58;;;;;;;0.20;0.20;;;;;;;29.75;38.86;100761.47;5021280;28;20038;-93
2023/07/31 10:23:24;;;;;;;0.20;0.20;;;;;;;29.69;39.74;100767.56;5016972;28;20038;-93
2023/07/31 10:25:50;;;;;;;0.20;0.20;;;;;;;29.63;40.22;100758.53;5016699;28;20096;-92
2023/07/31 10:28:16;;;;;;;0.20;0.20;;;;;;;29.81;39.34;100760.69;5011288;28;20037;-94
2023/07/31 10:30:43;;;;;;;0.20;0.20;;;;;;;29.96;40.00;100745.34;5306136;22;21418;-93
2023/07/31 10:33:11;;;;;;;0.10;0.10;;;;;;;29.84;39.89;100754.13;5011090;28;20041;-93
2023/07/31 10:35:40;;;;;;;0.20;0.20;;;;;;;29.73;40.20;100752.84;5006746;28;20045;-89
2023/07/31 10:38:12;;;;;;;0.20;0.20;;;;;;;29.75;39.46;100756.13;5019511;28;20036;-86
2023/07/31 10:40:37;;;;;;;;;;;;;;;29.82;39.75;100757.00;5020371;28;20331;-88
2023/07/31 10:43:03;;;;;;;0.20;0.20;;;;;;;29.74;39.16;100754.50;5019570;28;21048;-91
2023/07/31 10:45:36;;;;;;;0.20;0.20;;;;;;;29.94;40.09;100750.06;5008558;28;20052;-92
2023/07/31 10:48:06;;;;;;;0.20;0.20;;;;;;;29.87;41.04;100738.53;5039685;28;20024;-89
2023/07/31 10:50:33;;;;;;;0.20;0.20;;;;;;;29.75;39.92;100724.13;5044318;28;20053;-89
2023/07/31 10:52:58;;;;;;;0.20;0.20;;;;;;;29.73;39.85;100736.84;5038157;28;20502;-93
2023/07/31 10:55:40;;;;;;;0.20;0.20;;;;;;;29.80;40.68;100743.03;5009778;28;20057;-93
2023/07/31 10:58:09;;;;;;;0.20;0.20;;;;;;;29.71;41.45;100752.22;5025336;28;20036;-93
2023/07/31 11:00:45;;;;;;;0.10;0.10;;;;;;;29.43;41.80;100741.56;5039594;28;20043;-92
2023/07/31 11:03:18;;;;;;;0.20;0.20;;;;;;;29.45;42.09;100744.84;5001888;28;20040;-92
2023/07/31 11:05:59;;;;;;;0.20;0.20;;;;;;;29.60;41.75;100718.13;4999824;28;20029;-93
2023/07/31 11:08:41;;;;;;;0.20;0.20;;;;;;;29.67;41.41;100734.97;5035059;28;20078;-90
2023/07/31 11:11:08;;;;;;;0.15;0.15;;;;;;;29.59;40.40;100692.47;5013921;28;20063;-92
2023/07/31 11:13:39;;;;;;;0.20;0.20;;;;;;;29.93;40.87;100728.94;5002738;28;20029;-91
2023/07/31 11:16:04;;;;;;;0.20;0.20;;;;;;;29.98;40.82;100727.31;5018008;28;20140;-94
2023/07/31 11:18:30;;;;;;;0.20;0.20;;;;;;;30.16;40.62;100728.63;5018635;28;20068;-93
2023/07/31 11:20:55;;;;;;;0.20;0.20;;;;;;;30.21;40.09;100720.88;5019857;28;20041;-93
2023/07/31 11:23:21;;;;;;;0.20;0.20;;;;;;;30.09;39.42;100722.44;5003933;28;20106;-89
2023/07/31 11:25:47;;;;;;;0.20;0.20;;;;;;;29.97;38.82;100731.00;5049553;28;20486;-92
2023/07/31 11:28:13;;;;;;;0.20;0.20;;;;;;;29.86;39.57;100734.22;5014995;28;20029;-93
2023/07/31 11:30:40;;;;;;;0.20;0.20;;;;;;;29.69;39.87;100735.59;5031855;28;20033;-87